sensor_id;sensor_type;location;lat;lon;timestamp;P1;durP1;ratioP1;P2;durP2;ratioP2
25049;SDS011;13046;49.814;9.918;2023-05-10T00:01:13;3.75;;;3.45;;
25049;SDS011;13046;49.814;9.918;2023-05-10T00:03:39;3.95;;;3.60;;
25049;SDS011;13046;49.814;9.918;2023-05-10T00:06:05;5.60;;;4.38;;
25049;SDS011;13046;49.814;9.918;2023-05-10T00:08:31;3.60;;;3.30;;
25049;SDS011;13046;49.814;9.918;2023-05-10T00:10:57;3.83;;;3.42;;
25049;SDS011;13046;49.814;9.918;2023-05-10T00:13:23;5.85;;;3.90;;
25049;SDS011;13046;49.814;9.918;2023-05-10T00:15:49;4.47;;;3.20;;
25049;SDS011;13046;49.814;9.918;2023-05-10T00:18:15;3.25;;;3.05;;
25049;SDS011;13046;49.814;9.918;2023-05-10T00:20:41;3.58;;;3.28;;
25049;SDS011;13046;49.814;9.918;2023-05-10T00:23:07;4.15;;;3.03;;
25049;SDS011;13046;49.814;9.918;2023-05-10T00:25:33;3.60;;;3.30;;
25049;SDS011;13046;49.814;9.918;2023-05-10T00:27:59;3.42;;;3.00;;
25049;SDS011;13046;49.814;9.918;2023-05-10T00:30:26;3.83;;;3.53;;
25049;SDS011;13046;49.814;9.918;2023-05-10T00:32:53;6.20;;;3.10;;
25049;SDS011;13046;49.814;9.918;2023-05-10T00:35:19;5.30;;;4.07;;
25049;SDS011;13046;49.814;9.918;2023-05-10T00:37:46;5.53;;;3.05;;
25049;SDS011;13046;49.814;9.918;2023-05-10T00:40:13;4.65;;;3.58;;
25049;SDS011;13046;49.814;9.918;2023-05-10T00:42:43;3.65;;;3.35;;
25049;SDS011;13046;49.814;9.918;2023-05-10T00:45:09;5.97;;;3.92;;
25049;SDS011;13046;49.814;9.918;2023-05-10T00:47:35;4.15;;;2.88;;
25049;SDS011;13046;49.814;9.918;2023-05-10T00:50:01;7.15;;;3.50;;
25049;SDS011;13046;49.814;9.918;2023-05-10T00:52:28;4.57;;;3.00;;
25049;SDS011;13046;49.814;9.918;2023-05-10T00:54:54;4.05;;;2.72;;
25049;SDS011;13046;49.814;9.918;2023-05-10T00:57:21;3.67;;;2.85;;
25049;SDS011;13046;49.814;9.918;2023-05-10T00:59:47;3.08;;;2.88;;
25049;SDS011;13046;49.814;9.918;2023-05-10T01:02:13;4.13;;;3.33;;
25049;SDS011;13046;49.814;9.918;2023-05-10T01:04:40;3.97;;;3.28;;
25049;SDS011;13046;49.814;9.918;2023-05-10T01:07:06;4.00;;;2.83;;
25049;SDS011;13046;49.814;9.918;2023-05-10T01:09:32;3.45;;;3.08;;
25049;SDS011;13046;49.814;9.918;2023-05-10T01:11:59;3.10;;;2.70;;
25049;SDS011;13046;49.814;9.918;2023-05-10T01:14:25;4.00;;;2.90;;
25049;SDS011;13046;49.814;9.918;2023-05-10T01:16:52;2.75;;;2.55;;
25049;SDS011;13046;49.814;9.918;2023-05-10T01:19:28;2.90;;;2.70;;
25049;SDS011;13046;49.814;9.918;2023-05-10T01:32:25;2.42;;;2.22;;
25049;SDS011;13046;49.814;9.918;2023-05-10T01:37:25;2.95;;;2.65;;
25049;SDS011;13046;49.814;9.918;2023-05-10T01:42:21;3.60;;;2.63;;
25049;SDS011;13046;49.814;9.918;2023-05-10T01:44:57;1.70;;;1.60;;
25049;SDS011;13046;49.814;9.918;2023-05-10T01:47:46;1.92;;;1.83;;
25049;SDS011;13046;49.814;9.918;2023-05-10T01:50:30;1.50;;;1.42;;
25049;SDS011;13046;49.814;9.918;2023-05-10T01:52:57;2.63;;;1.75;;
25049;SDS011;13046;49.814;9.918;2023-05-10T01:55:25;2.15;;;1.95;;
25049;SDS011;13046;49.814;9.918;2023-05-10T01:57:54;1.83;;;1.73;;
25049;SDS011;13046;49.814;9.918;2023-05-10T02:00:22;1.80;;;1.70;;
25049;SDS011;13046;49.814;9.918;2023-05-10T02:02:50;1.58;;;1.48;;
25049;SDS011;13046;49.814;9.918;2023-05-10T02:05:17;2.50;;;1.70;;
25049;SDS011;13046;49.814;9.918;2023-05-10T02:07:45;2.50;;;1.80;;
25049;SDS011;13046;49.814;9.918;2023-05-10T02:10:12;2.90;;;1.42;;
25049;SDS011;13046;49.814;9.918;2023-05-10T02:12:40;1.40;;;1.30;;
25049;SDS011;13046;49.814;9.918;2023-05-10T02:15:07;1.23;;;1.13;;
25049;SDS011;13046;49.814;9.918;2023-05-10T02:17:34;1.40;;;1.30;;
25049;SDS011;13046;49.814;9.918;2023-05-10T02:20:01;1.00;;;1.00;;
25049;SDS011;13046;49.814;9.918;2023-05-10T02:22:29;1.52;;;1.42;;
25049;SDS011;13046;49.814;9.918;2023-05-10T02:24:55;1.58;;;1.48;;
25049;SDS011;13046;49.814;9.918;2023-05-10T02:27:23;1.30;;;1.20;;
25049;SDS011;13046;49.814;9.918;2023-05-10T02:29:50;1.40;;;1.38;;
25049;SDS011;13046;49.814;9.918;2023-05-10T02:32:17;1.15;;;1.15;;
25049;SDS011;13046;49.814;9.918;2023-05-10T02:34:44;4.43;;;1.20;;
25049;SDS011;13046;49.814;9.918;2023-05-10T02:37:13;2.60;;;1.17;;
25049;SDS011;13046;49.814;9.918;2023-05-10T02:39:40;1.20;;;1.10;;
25049;SDS011;13046;49.814;9.918;2023-05-10T02:42:10;1.73;;;1.08;;
25049;SDS011;13046;49.814;9.918;2023-05-10T02:44:41;1.03;;;1.03;;
25049;SDS011;13046;49.814;9.918;2023-05-10T02:47:08;1.95;;;0.77;;
25049;SDS011;13046;49.814;9.918;2023-05-10T02:49:34;1.05;;;1.02;;
25049;SDS011;13046;49.814;9.918;2023-05-10T02:52:01;2.35;;;1.00;;
25049;SDS011;13046;49.814;9.918;2023-05-10T02:54:30;1.95;;;0.80;;
25049;SDS011;13046;49.814;9.918;2023-05-10T02:57:00;1.00;;;1.00;;
25049;SDS011;13046;49.814;9.918;2023-05-10T02:59:28;1.00;;;1.00;;
25049;SDS011;13046;49.814;9.918;2023-05-10T03:01:54;1.42;;;1.10;;
25049;SDS011;13046;49.814;9.918;2023-05-10T03:04:20;0.80;;;0.80;;
25049;SDS011;13046;49.814;9.918;2023-05-10T03:06:46;2.75;;;1.10;;
25049;SDS011;13046;49.814;9.918;2023-05-10T03:09:12;2.47;;;1.65;;
25049;SDS011;13046;49.814;9.918;2023-05-10T03:17:22;1.48;;;0.90;;
25049;SDS011;13046;49.814;9.918;2023-05-10T03:19:55;0.73;;;0.73;;
25049;SDS011;13046;49.814;9.918;2023-05-10T03:22:28;1.30;;;0.93;;
25049;SDS011;13046;49.814;9.918;2023-05-10T03:24:57;3.58;;;1.00;;
25049;SDS011;13046;49.814;9.918;2023-05-10T03:27:27;0.80;;;0.80;;
25049;SDS011;13046;49.814;9.918;2023-05-10T03:29:55;6.90;;;1.13;;
25049;SDS011;13046;49.814;9.918;2023-05-10T03:32:21;2.00;;;1.00;;
25049;SDS011;13046;49.814;9.918;2023-05-10T03:34:47;1.63;;;1.00;;
25049;SDS011;13046;49.814;9.918;2023-05-10T03:37:13;0.80;;;0.80;;
25049;SDS011;13046;49.814;9.918;2023-05-10T03:39:39;3.58;;;1.30;;
25049;SDS011;13046;49.814;9.918;2023-05-10T03:42:07;1.23;;;0.80;;
25049;SDS011;13046;49.814;9.918;2023-05-10T03:44:32;1.10;;;0.95;;
25049;SDS011;13046;49.814;9.918;2023-05-10T03:46:58;2.70;;;1.10;;
25049;SDS011;13046;49.814;9.918;2023-05-10T03:49:24;1.70;;;1.00;;
25049;SDS011;13046;49.814;9.918;2023-05-10T03:51:50;1.05;;;0.95;;
25049;SDS011;13046;49.814;9.918;2023-05-10T03:54:16;0.70;;;0.70;;
25049;SDS011;13046;49.814;9.918;2023-05-10T03:56:41;0.98;;;0.85;;
25049;SDS011;13046;49.814;9.918;2023-05-10T03:59:07;3.63;;;1.00;;
25049;SDS011;13046;49.814;9.918;2023-05-10T04:01:34;1.75;;;1.30;;
25049;SDS011;13046;49.814;9.918;2023-05-10T04:04:00;2.10;;;1.20;;
25049;SDS011;13046;49.814;9.918;2023-05-10T04:06:26;1.30;;;1.20;;
25049;SDS011;13046;49.814;9.918;2023-05-10T04:08:53;1.63;;;1.52;;
25049;SDS011;13046;49.814;9.918;2023-05-10T04:11:18;3.40;;;1.63;;
25049;SDS011;13046;49.814;9.918;2023-05-10T04:13:47;1.10;;;1.10;;
25049;SDS011;13046;49.814;9.918;2023-05-10T04:16:12;1.52;;;1.42;;
25049;SDS011;13046;49.814;9.918;2023-05-10T04:18:38;1.52;;;1.42;;
25049;SDS011;13046;49.814;9.918;2023-05-10T04:21:04;2.58;;;1.42;;
25049;SDS011;13046;49.814;9.918;2023-05-10T04:23:37;1.83;;;1.50;;
25049;SDS011;13046;49.814;9.918;2023-05-10T04:26:03;1.15;;;1.10;;
25049;SDS011;13046;49.814;9.918;2023-05-10T04:28:29;3.72;;;1.33;;
25049;SDS011;13046;49.814;9.918;2023-05-10T04:31:04;4.15;;;1.58;;
25049;SDS011;13046;49.814;9.918;2023-05-10T04:33:31;3.28;;;1.85;;
25049;SDS011;13046;49.814;9.918;2023-05-10T04:35:57;1.70;;;1.42;;
25049;SDS011;13046;49.814;9.918;2023-05-10T04:38:23;1.60;;;1.50;;
25049;SDS011;13046;49.814;9.918;2023-05-10T04:40:48;2.10;;;1.67;;
25049;SDS011;13046;49.814;9.918;2023-05-10T04:43:14;1.90;;;1.80;;
25049;SDS011;13046;49.814;9.918;2023-05-10T04:45:40;1.52;;;1.42;;
25049;SDS011;13046;49.814;9.918;2023-05-10T04:48:05;2.08;;;1.65;;
25049;SDS011;13046;49.814;9.918;2023-05-10T04:50:31;1.63;;;1.55;;
25049;SDS011;13046;49.814;9.918;2023-05-10T04:52:57;1.70;;;1.60;;
25049;SDS011;13046;49.814;9.918;2023-05-10T04:55:22;3.53;;;1.67;;
25049;SDS011;13046;49.814;9.918;2023-05-10T04:57:48;2.10;;;1.90;;
25049;SDS011;13046;49.814;9.918;2023-05-10T05:00:14;4.15;;;1.63;;
25049;SDS011;13046;49.814;9.918;2023-05-10T05:02:43;1.75;;;1.60;;
25049;SDS011;13046;49.814;9.918;2023-05-10T05:05:10;1.95;;;1.85;;
25049;SDS011;13046;49.814;9.918;2023-05-10T05:07:36;2.28;;;2.08;;
25049;SDS011;13046;49.814;9.918;2023-05-10T05:10:03;4.10;;;1.90;;
25049;SDS011;13046;49.814;9.918;2023-05-10T05:12:32;1.90;;;1.80;;
25049;SDS011;13046;49.814;9.918;2023-05-10T05:14:58;2.08;;;1.73;;
25049;SDS011;13046;49.814;9.918;2023-05-10T05:17:24;1.75;;;1.65;;
25049;SDS011;13046;49.814;9.918;2023-05-10T05:19:49;1.98;;;1.52;;
25049;SDS011;13046;49.814;9.918;2023-05-10T05:22:15;2.17;;;2.05;;
25049;SDS011;13046;49.814;9.918;2023-05-10T05:24:41;11.02;;;3.45;;
25049;SDS011;13046;49.814;9.918;2023-05-10T05:27:06;2.00;;;1.70;;
25049;SDS011;13046;49.814;9.918;2023-05-10T05:29:32;2.30;;;2.10;;
25049;SDS011;13046;49.814;9.918;2023-05-10T05:31:58;2.35;;;2.15;;
25049;SDS011;13046;49.814;9.918;2023-05-10T05:34:24;2.53;;;1.60;;
25049;SDS011;13046;49.814;9.918;2023-05-10T05:36:50;6.25;;;2.25;;
25049;SDS011;13046;49.814;9.918;2023-05-10T05:39:16;3.35;;;1.90;;
25049;SDS011;13046;49.814;9.918;2023-05-10T05:41:41;2.95;;;1.80;;
25049;SDS011;13046;49.814;9.918;2023-05-10T05:44:07;1.98;;;1.88;;
25049;SDS011;13046;49.814;9.918;2023-05-10T05:46:33;3.60;;;2.60;;
25049;SDS011;13046;49.814;9.918;2023-05-10T05:48:58;2.58;;;2.00;;
25049;SDS011;13046;49.814;9.918;2023-05-10T05:51:24;1.98;;;1.80;;
25049;SDS011;13046;49.814;9.918;2023-05-10T05:53:50;2.47;;;1.90;;
25049;SDS011;13046;49.814;9.918;2023-05-10T05:56:15;3.75;;;2.30;;
25049;SDS011;13046;49.814;9.918;2023-05-10T05:58:42;2.25;;;1.92;;
25049;SDS011;13046;49.814;9.918;2023-05-10T06:01:08;1.83;;;1.73;;
25049;SDS011;13046;49.814;9.918;2023-05-10T06:03:34;2.78;;;2.17;;
25049;SDS011;13046;49.814;9.918;2023-05-10T06:05:59;2.22;;;2.10;;
25049;SDS011;13046;49.814;9.918;2023-05-10T06:08:25;2.35;;;2.15;;
25049;SDS011;13046;49.814;9.918;2023-05-10T06:10:51;3.17;;;2.25;;
25049;SDS011;13046;49.814;9.918;2023-05-10T06:13:16;3.38;;;2.20;;
25049;SDS011;13046;49.814;9.918;2023-05-10T06:15:42;3.83;;;3.55;;
25049;SDS011;13046;49.814;9.918;2023-05-10T06:18:08;2.55;;;2.35;;
25049;SDS011;13046;49.814;9.918;2023-05-10T06:20:33;2.58;;;2.00;;
25049;SDS011;13046;49.814;9.918;2023-05-10T06:22:59;5.00;;;2.47;;
25049;SDS011;13046;49.814;9.918;2023-05-10T06:25:24;2.42;;;2.22;;
25049;SDS011;13046;49.814;9.918;2023-05-10T06:27:50;2.65;;;2.47;;
25049;SDS011;13046;49.814;9.918;2023-05-10T06:30:20;4.97;;;2.60;;
25049;SDS011;13046;49.814;9.918;2023-05-10T06:32:48;2.97;;;2.78;;
25049;SDS011;13046;49.814;9.918;2023-05-10T06:35:13;4.70;;;2.40;;
25049;SDS011;13046;49.814;9.918;2023-05-10T06:37:39;3.42;;;3.13;;
25049;SDS011;13046;49.814;9.918;2023-05-10T06:40:05;3.33;;;3.03;;
25049;SDS011;13046;49.814;9.918;2023-05-10T06:42:31;4.68;;;2.30;;
25049;SDS011;13046;49.814;9.918;2023-05-10T06:44:57;5.03;;;2.42;;
25049;SDS011;13046;49.814;9.918;2023-05-10T06:47:23;3.25;;;2.55;;
25049;SDS011;13046;49.814;9.918;2023-05-10T06:49:48;2.58;;;2.33;;
25049;SDS011;13046;49.814;9.918;2023-05-10T06:52:14;2.90;;;2.60;;
25049;SDS011;13046;49.814;9.918;2023-05-10T06:54:39;4.93;;;2.28;;
25049;SDS011;13046;49.814;9.918;2023-05-10T06:57:05;2.45;;;2.25;;
25049;SDS011;13046;49.814;9.918;2023-05-10T06:59:31;5.78;;;3.10;;
25049;SDS011;13046;49.814;9.918;2023-05-10T07:01:57;2.30;;;2.10;;
25049;SDS011;13046;49.814;9.918;2023-05-10T07:04:22;3.03;;;2.60;;
25049;SDS011;13046;49.814;9.918;2023-05-10T07:06:48;4.57;;;3.10;;
25049;SDS011;13046;49.814;9.918;2023-05-10T07:09:14;6.72;;;3.75;;
25049;SDS011;13046;49.814;9.918;2023-05-10T07:11:40;5.97;;;2.95;;
25049;SDS011;13046;49.814;9.918;2023-05-10T07:14:06;5.05;;;3.40;;
25049;SDS011;13046;49.814;9.918;2023-05-10T07:16:32;3.58;;;3.28;;
25049;SDS011;13046;49.814;9.918;2023-05-10T07:18:57;4.03;;;3.33;;
25049;SDS011;13046;49.814;9.918;2023-05-10T07:21:23;3.67;;;3.13;;
25049;SDS011;13046;49.814;9.918;2023-05-10T07:23:49;2.83;;;2.63;;
25049;SDS011;13046;49.814;9.918;2023-05-10T07:26:15;4.93;;;2.95;;
25049;SDS011;13046;49.814;9.918;2023-05-10T07:28:41;3.10;;;2.80;;
25049;SDS011;13046;49.814;9.918;2023-05-10T07:31:07;3.47;;;2.70;;
25049;SDS011;13046;49.814;9.918;2023-05-10T07:33:32;4.50;;;3.10;;
25049;SDS011;13046;49.814;9.918;2023-05-10T07:35:58;4.25;;;3.00;;
25049;SDS011;13046;49.814;9.918;2023-05-10T07:38:24;4.47;;;2.88;;
25049;SDS011;13046;49.814;9.918;2023-05-10T07:40:49;3.33;;;3.03;;
25049;SDS011;13046;49.814;9.918;2023-05-10T07:43:15;7.53;;;2.78;;
25049;SDS011;13046;49.814;9.918;2023-05-10T07:45:40;3.22;;;3.03;;
25049;SDS011;13046;49.814;9.918;2023-05-10T07:48:06;3.28;;;2.97;;
25049;SDS011;13046;49.814;9.918;2023-05-10T07:50:32;3.13;;;2.92;;
25049;SDS011;13046;49.814;9.918;2023-05-10T07:52:58;5.25;;;2.80;;
25049;SDS011;13046;49.814;9.918;2023-05-10T07:55:23;5.38;;;2.78;;
25049;SDS011;13046;49.814;9.918;2023-05-10T07:57:49;4.03;;;2.97;;
25049;SDS011;13046;49.814;9.918;2023-05-10T08:00:18;3.83;;;3.10;;
25049;SDS011;13046;49.814;9.918;2023-05-10T08:02:44;3.65;;;3.20;;
25049;SDS011;13046;49.814;9.918;2023-05-10T08:05:10;4.95;;;3.13;;
25049;SDS011;13046;49.814;9.918;2023-05-10T08:07:36;3.45;;;3.05;;
25049;SDS011;13046;49.814;9.918;2023-05-10T08:10:02;8.05;;;3.00;;
25049;SDS011;13046;49.814;9.918;2023-05-10T08:12:28;3.40;;;3.03;;
25049;SDS011;13046;49.814;9.918;2023-05-10T08:14:54;4.93;;;3.30;;
25049;SDS011;13046;49.814;9.918;2023-05-10T08:17:19;4.63;;;3.13;;
25049;SDS011;13046;49.814;9.918;2023-05-10T08:19:45;6.18;;;2.92;;
25049;SDS011;13046;49.814;9.918;2023-05-10T08:22:10;2.80;;;2.35;;
25049;SDS011;13046;49.814;9.918;2023-05-10T08:24:36;6.60;;;4.57;;
25049;SDS011;13046;49.814;9.918;2023-05-10T08:27:06;3.17;;;2.53;;
25049;SDS011;13046;49.814;9.918;2023-05-10T08:29:32;3.58;;;2.78;;
25049;SDS011;13046;49.814;9.918;2023-05-10T08:31:58;2.42;;;2.22;;
25049;SDS011;13046;49.814;9.918;2023-05-10T08:34:23;4.78;;;3.05;;
25049;SDS011;13046;49.814;9.918;2023-05-10T08:36:50;3.38;;;2.55;;
25049;SDS011;13046;49.814;9.918;2023-05-10T08:39:15;5.30;;;3.72;;
25049;SDS011;13046;49.814;9.918;2023-05-10T08:41:41;5.63;;;3.13;;
25049;SDS011;13046;49.814;9.918;2023-05-10T08:44:10;3.05;;;2.70;;
25049;SDS011;13046;49.814;9.918;2023-05-10T08:46:36;3.00;;;2.80;;
25049;SDS011;13046;49.814;9.918;2023-05-10T08:49:05;4.45;;;2.20;;
25049;SDS011;13046;49.814;9.918;2023-05-10T08:51:33;4.20;;;2.95;;
25049;SDS011;13046;49.814;9.918;2023-05-10T08:54:05;2.30;;;2.20;;
25049;SDS011;13046;49.814;9.918;2023-05-10T08:56:31;3.70;;;2.30;;
25049;SDS011;13046;49.814;9.918;2023-05-10T08:58:57;3.53;;;2.20;;
25049;SDS011;13046;49.814;9.918;2023-05-10T09:01:22;3.00;;;2.70;;
25049;SDS011;13046;49.814;9.918;2023-05-10T09:03:49;5.00;;;3.45;;
25049;SDS011;13046;49.814;9.918;2023-05-10T09:06:15;4.47;;;2.60;;
25049;SDS011;13046;49.814;9.918;2023-05-10T09:08:42;4.63;;;3.15;;
25049;SDS011;13046;49.814;9.918;2023-05-10T09:11:08;2.67;;;2.47;;
25049;SDS011;13046;49.814;9.918;2023-05-10T09:13:37;3.15;;;2.35;;
25049;SDS011;13046;49.814;9.918;2023-05-10T09:16:04;3.25;;;2.50;;
25049;SDS011;13046;49.814;9.918;2023-05-10T09:18:30;4.88;;;3.08;;
25049;SDS011;13046;49.814;9.918;2023-05-10T09:20:55;6.40;;;3.03;;
25049;SDS011;13046;49.814;9.918;2023-05-10T09:23:21;7.82;;;3.22;;
25049;SDS011;13046;49.814;9.918;2023-05-10T09:25:47;3.45;;;2.53;;
25049;SDS011;13046;49.814;9.918;2023-05-10T09:28:13;2.70;;;2.50;;
25049;SDS011;13046;49.814;9.918;2023-05-10T09:30:39;3.03;;;2.78;;
25049;SDS011;13046;49.814;9.918;2023-05-10T09:33:05;3.60;;;3.30;;
25049;SDS011;13046;49.814;9.918;2023-05-10T09:35:31;5.85;;;2.80;;
25049;SDS011;13046;49.814;9.918;2023-05-10T09:38:03;6.13;;;3.00;;
25049;SDS011;13046;49.814;9.918;2023-05-10T09:40:29;6.28;;;3.47;;
25049;SDS011;13046;49.814;9.918;2023-05-10T09:45:42;3.97;;;2.88;;
25049;SDS011;13046;49.814;9.918;2023-05-10T09:48:08;3.38;;;3.10;;
25049;SDS011;13046;49.814;9.918;2023-05-10T09:50:33;3.13;;;2.92;;
25049;SDS011;13046;49.814;9.918;2023-05-10T09:53:00;5.43;;;2.90;;
25049;SDS011;13046;49.814;9.918;2023-05-10T09:58:07;3.22;;;2.80;;
25049;SDS011;13046;49.814;9.918;2023-05-10T10:00:36;3.22;;;2.92;;
25049;SDS011;13046;49.814;9.918;2023-05-10T10:03:04;3.17;;;2.97;;
25049;SDS011;13046;49.814;9.918;2023-05-10T10:05:33;3.60;;;2.33;;
25049;SDS011;13046;49.814;9.918;2023-05-10T10:08:01;3.10;;;2.78;;
25049;SDS011;13046;49.814;9.918;2023-05-10T10:10:28;3.60;;;3.30;;
25049;SDS011;13046;49.814;9.918;2023-05-10T10:12:55;5.07;;;2.78;;
25049;SDS011;13046;49.814;9.918;2023-05-10T10:15:21;3.55;;;2.20;;
25049;SDS011;13046;49.814;9.918;2023-05-10T10:17:48;4.35;;;3.00;;
25049;SDS011;13046;49.814;9.918;2023-05-10T10:20:14;2.72;;;2.60;;
25049;SDS011;13046;49.814;9.918;2023-05-10T10:22:41;2.67;;;2.25;;
25049;SDS011;13046;49.814;9.918;2023-05-10T10:25:09;6.47;;;2.53;;
25049;SDS011;13046;49.814;9.918;2023-05-10T10:35:37;2.22;;;2.08;;
25049;SDS011;13046;49.814;9.918;2023-05-10T10:38:03;2.55;;;2.35;;
25049;SDS011;13046;49.814;9.918;2023-05-10T10:40:30;4.28;;;2.20;;
25049;SDS011;13046;49.814;9.918;2023-05-10T10:42:57;3.45;;;2.10;;
25049;SDS011;13046;49.814;9.918;2023-05-10T10:45:24;3.88;;;1.80;;
25049;SDS011;13046;49.814;9.918;2023-05-10T10:50:45;2.97;;;2.13;;
25049;SDS011;13046;49.814;9.918;2023-05-10T10:53:11;2.30;;;1.80;;
25049;SDS011;13046;49.814;9.918;2023-05-10T10:55:47;3.50;;;2.17;;
25049;SDS011;13046;49.814;9.918;2023-05-10T10:58:32;2.72;;;2.28;;
25049;SDS011;13046;49.814;9.918;2023-05-10T11:03:40;2.78;;;1.92;;
25049;SDS011;13046;49.814;9.918;2023-05-10T11:06:06;1.83;;;1.67;;
25049;SDS011;13046;49.814;9.918;2023-05-10T11:08:34;1.60;;;1.50;;
25049;SDS011;13046;49.814;9.918;2023-05-10T11:13:42;3.78;;;2.50;;
25049;SDS011;13046;49.814;9.918;2023-05-10T11:16:21;2.13;;;1.92;;
25049;SDS011;13046;49.814;9.918;2023-05-10T11:19:03;2.65;;;1.27;;
25049;SDS011;13046;49.814;9.918;2023-05-10T11:21:30;2.33;;;1.85;;
25049;SDS011;13046;49.814;9.918;2023-05-10T11:23:58;4.50;;;2.03;;
25049;SDS011;13046;49.814;9.918;2023-05-10T11:26:25;3.47;;;2.58;;
25049;SDS011;13046;49.814;9.918;2023-05-10T11:28:52;3.55;;;2.70;;
25049;SDS011;13046;49.814;9.918;2023-05-10T11:31:20;2.75;;;1.88;;
25049;SDS011;13046;49.814;9.918;2023-05-10T11:33:47;1.85;;;1.67;;
25049;SDS011;13046;49.814;9.918;2023-05-10T11:36:14;3.90;;;2.40;;
25049;SDS011;13046;49.814;9.918;2023-05-10T11:38:40;3.92;;;1.90;;
25049;SDS011;13046;49.814;9.918;2023-05-10T11:41:08;2.33;;;2.13;;
25049;SDS011;13046;49.814;9.918;2023-05-10T11:43:34;3.35;;;1.95;;
25049;SDS011;13046;49.814;9.918;2023-05-10T11:46:03;5.25;;;2.60;;
25049;SDS011;13046;49.814;9.918;2023-05-10T11:48:29;2.35;;;1.90;;
25049;SDS011;13046;49.814;9.918;2023-05-10T11:50:55;2.35;;;1.80;;
25049;SDS011;13046;49.814;9.918;2023-05-10T11:53:22;3.80;;;1.70;;
25049;SDS011;13046;49.814;9.918;2023-05-10T11:55:48;2.38;;;2.17;;
25049;SDS011;13046;49.814;9.918;2023-05-10T11:58:15;3.53;;;2.03;;
25049;SDS011;13046;49.814;9.918;2023-05-10T12:00:40;2.15;;;2.05;;
25049;SDS011;13046;49.814;9.918;2023-05-10T12:03:06;2.60;;;1.60;;
25049;SDS011;13046;49.814;9.918;2023-05-10T12:05:32;2.20;;;2.00;;
25049;SDS011;13046;49.814;9.918;2023-05-10T12:08:14;3.45;;;1.92;;
25049;SDS011;13046;49.814;9.918;2023-05-10T12:10:41;3.63;;;2.10;;
25049;SDS011;13046;49.814;9.918;2023-05-10T12:13:10;2.22;;;1.88;;
25049;SDS011;13046;49.814;9.918;2023-05-10T12:15:38;1.88;;;1.77;;
25049;SDS011;13046;49.814;9.918;2023-05-10T12:18:04;8.35;;;3.00;;
25049;SDS011;13046;49.814;9.918;2023-05-10T12:20:30;2.40;;;2.20;;
25049;SDS011;13046;49.814;9.918;2023-05-10T12:22:57;2.67;;;2.47;;
25049;SDS011;13046;49.814;9.918;2023-05-10T12:25:32;4.78;;;2.10;;
25049;SDS011;13046;49.814;9.918;2023-05-10T12:27:59;3.55;;;1.95;;
25049;SDS011;13046;49.814;9.918;2023-05-10T12:30:29;3.55;;;1.90;;
25049;SDS011;13046;49.814;9.918;2023-05-10T12:32:59;1.73;;;1.63;;
25049;SDS011;13046;49.814;9.918;2023-05-10T12:35:25;5.68;;;1.90;;
25049;SDS011;13046;49.814;9.918;2023-05-10T12:37:51;3.65;;;2.30;;
25049;SDS011;13046;49.814;9.918;2023-05-10T12:40:17;3.28;;;1.90;;
25049;SDS011;13046;49.814;9.918;2023-05-10T12:42:43;2.92;;;1.95;;
25049;SDS011;13046;49.814;9.918;2023-05-10T12:45:10;1.90;;;1.80;;
25049;SDS011;13046;49.814;9.918;2023-05-10T12:47:37;7.38;;;2.95;;
25049;SDS011;13046;49.814;9.918;2023-05-10T12:50:03;1.98;;;1.58;;
25049;SDS011;13046;49.814;9.918;2023-05-10T12:52:29;1.42;;;1.33;;
25049;SDS011;13046;49.814;9.918;2023-05-10T12:54:57;1.60;;;1.50;;
25049;SDS011;13046;49.814;9.918;2023-05-10T12:57:23;3.47;;;1.30;;
25049;SDS011;13046;49.814;9.918;2023-05-10T12:59:49;2.10;;;1.90;;
25049;SDS011;13046;49.814;9.918;2023-05-10T13:02:15;5.75;;;2.08;;
25049;SDS011;13046;49.814;9.918;2023-05-10T13:04:46;5.40;;;3.40;;
25049;SDS011;13046;49.814;9.918;2023-05-10T13:07:12;2.65;;;2.45;;
25049;SDS011;13046;49.814;9.918;2023-05-10T13:09:38;2.53;;;2.33;;
25049;SDS011;13046;49.814;9.918;2023-05-10T13:12:04;2.55;;;2.35;;
25049;SDS011;13046;49.814;9.918;2023-05-10T13:14:30;2.50;;;2.22;;
25049;SDS011;13046;49.814;9.918;2023-05-10T13:16:56;3.60;;;2.38;;
25049;SDS011;13046;49.814;9.918;2023-05-10T13:19:22;4.88;;;2.63;;
25049;SDS011;13046;49.814;9.918;2023-05-10T13:21:49;5.32;;;2.58;;
25049;SDS011;13046;49.814;9.918;2023-05-10T13:24:15;3.58;;;2.72;;
25049;SDS011;13046;49.814;9.918;2023-05-10T13:26:42;3.13;;;2.30;;
25049;SDS011;13046;49.814;9.918;2023-05-10T13:29:08;6.90;;;3.45;;
25049;SDS011;13046;49.814;9.918;2023-05-10T13:31:34;3.08;;;1.90;;
25049;SDS011;13046;49.814;9.918;2023-05-10T13:34:01;5.22;;;2.45;;
25049;SDS011;13046;49.814;9.918;2023-05-10T13:36:27;3.65;;;3.00;;
25049;SDS011;13046;49.814;9.918;2023-05-10T13:38:53;4.88;;;2.72;;
25049;SDS011;13046;49.814;9.918;2023-05-10T13:41:19;2.97;;;2.47;;
25049;SDS011;13046;49.814;9.918;2023-05-10T13:43:45;2.60;;;2.40;;
25049;SDS011;13046;49.814;9.918;2023-05-10T13:46:13;4.20;;;2.50;;
25049;SDS011;13046;49.814;9.918;2023-05-10T13:48:39;4.97;;;2.58;;
25049;SDS011;13046;49.814;9.918;2023-05-10T13:51:05;3.53;;;2.25;;
25049;SDS011;13046;49.814;9.918;2023-05-10T13:53:31;2.58;;;2.20;;
25049;SDS011;13046;49.814;9.918;2023-05-10T13:55:58;4.15;;;2.63;;
25049;SDS011;13046;49.814;9.918;2023-05-10T13:58:24;4.13;;;2.45;;
25049;SDS011;13046;49.814;9.918;2023-05-10T14:00:50;1.80;;;1.70;;
25049;SDS011;13046;49.814;9.918;2023-05-10T14:03:16;4.63;;;2.20;;
25049;SDS011;13046;49.814;9.918;2023-05-10T14:05:42;4.50;;;2.72;;
25049;SDS011;13046;49.814;9.918;2023-05-10T14:08:09;4.43;;;2.70;;
25049;SDS011;13046;49.814;9.918;2023-05-10T14:10:38;2.35;;;2.15;;
25049;SDS011;13046;49.814;9.918;2023-05-10T14:13:04;3.22;;;2.28;;
25049;SDS011;13046;49.814;9.918;2023-05-10T14:15:31;2.78;;;2.50;;
25049;SDS011;13046;49.814;9.918;2023-05-10T14:17:57;2.92;;;2.72;;
25049;SDS011;13046;49.814;9.918;2023-05-10T14:20:23;3.70;;;2.22;;
25049;SDS011;13046;49.814;9.918;2023-05-10T14:22:49;4.32;;;3.03;;
25049;SDS011;13046;49.814;9.918;2023-05-10T14:25:15;5.57;;;4.05;;
25049;SDS011;13046;49.814;9.918;2023-05-10T14:27:41;4.57;;;2.60;;
25049;SDS011;13046;49.814;9.918;2023-05-10T14:30:08;3.10;;;2.80;;
25049;SDS011;13046;49.814;9.918;2023-05-10T14:32:34;10.60;;;2.83;;
25049;SDS011;13046;49.814;9.918;2023-05-10T14:35:01;5.43;;;2.95;;
25049;SDS011;13046;49.814;9.918;2023-05-10T14:37:27;3.50;;;2.65;;
25049;SDS011;13046;49.814;9.918;2023-05-10T14:39:53;2.90;;;2.70;;
25049;SDS011;13046;49.814;9.918;2023-05-10T14:42:20;5.45;;;3.10;;
25049;SDS011;13046;49.814;9.918;2023-05-10T14:44:46;2.58;;;2.22;;
25049;SDS011;13046;49.814;9.918;2023-05-10T14:47:12;4.80;;;2.67;;
25049;SDS011;13046;49.814;9.918;2023-05-10T14:49:38;6.53;;;2.92;;
25049;SDS011;13046;49.814;9.918;2023-05-10T14:52:04;4.72;;;3.40;;
25049;SDS011;13046;49.814;9.918;2023-05-10T14:54:30;5.30;;;3.13;;
25049;SDS011;13046;49.814;9.918;2023-05-10T14:56:58;5.20;;;3.40;;
25049;SDS011;13046;49.814;9.918;2023-05-10T14:59:25;3.90;;;3.50;;
25049;SDS011;13046;49.814;9.918;2023-05-10T15:01:51;5.55;;;3.45;;
25049;SDS011;13046;49.814;9.918;2023-05-10T15:04:17;4.45;;;3.35;;
25049;SDS011;13046;49.814;9.918;2023-05-10T15:06:43;4.53;;;4.18;;
25049;SDS011;13046;49.814;9.918;2023-05-10T15:09:10;5.95;;;5.35;;
25049;SDS011;13046;49.814;9.918;2023-05-10T15:11:36;6.85;;;6.20;;
25049;SDS011;13046;49.814;9.918;2023-05-10T15:14:02;8.35;;;6.20;;
25049;SDS011;13046;49.814;9.918;2023-05-10T15:16:28;7.50;;;6.55;;
25049;SDS011;13046;49.814;9.918;2023-05-10T15:18:54;6.15;;;5.40;;
25049;SDS011;13046;49.814;9.918;2023-05-10T15:21:20;5.63;;;5.13;;
25049;SDS011;13046;49.814;9.918;2023-05-10T15:23:46;6.82;;;6.15;;
25049;SDS011;13046;49.814;9.918;2023-05-10T15:26:12;6.45;;;5.85;;
25049;SDS011;13046;49.814;9.918;2023-05-10T15:28:38;8.32;;;5.68;;